Sarah D. — WDC5757 — position and weather

sailwx.info

Track history (hours):
 
Tides and Currents Weather Stations Pressure Air Temp Water Temp Dewpoint Dewpoint Depression Visibility Wind Speed Wind Dir Waves Ship Positions

Sarah D.

Owner: C & J MARINE SERVICES, INC., BERWICK, LA. More information available from US FCC via Universal Licensing System and Coast Guard Vessel Documentation Center.

Last reported at 2017-Dec-11 12:53 UTC. Time now 2017-Dec-12 02:44 UTC.
Position N 29°38' W 091°19'.

; draft 3 m.

Type: . MMSI: 367045970.

Date/timePositionNaut miles runAvg speedWind from/ knotsBaromVisibWave heightAir tempDewpointWater temp
2017-Dec-11 12:53N 29°38' W 091°19'2 3.1
2017-Dec-11 12:18N 29°39' W 091°21'30 3.4
2017-Dec-11 03:19N 29°51' W 091°53'1 4.1
2017-Dec-11 03:01N 29°51' W 091°55'2 4.1
2017-Dec-11 02:31N 29°50' W 091°57'2 3.0
2017-Dec-11 02:00N 29°50' W 091°59'2 3.8
2017-Dec-11 01:31N 29°49' W 092°01'2 4.2
2017-Dec-11 01:00N 29°49' W 092°03'2 4.2
2017-Dec-11 00:31N 29°48' W 092°05'2 4.2
2017-Dec-11 00:01N 29°47' W 092°08'2 4.5
2017-Dec-10 23:31N 29°47' W 092°10'2 4.6
2017-Dec-10 23:01N 29°47' W 092°13'2 4.8
2017-Dec-10 22:31N 29°48' W 092°15'2 4.4
2017-Dec-10 22:01N 29°49' W 092°17'2 4.0
2017-Dec-10 21:30N 29°50' W 092°19'3 4.0
2017-Dec-10 20:47N 29°52' W 092°22'25 3.5
2017-Dec-10 13:38N 29°58' W 092°51'1 4.1
2017-Dec-10 13:28N 29°57' W 092°51'2 3.7
2017-Dec-10 13:00N 29°57' W 092°53'2 3.9
2017-Dec-10 12:31N 29°56' W 092°55'2 3.6
2017-Dec-10 12:01N 29°56' W 092°57'2 3.8
2017-Dec-10 11:31N 29°56' W 092°59'1 2.3
2017-Dec-10 11:00N 29°56' W 093°01'1 3.0
2017-Dec-10 10:30N 29°56' W 093°03'2 3.8
2017-Dec-10 10:00N 29°56' W 093°05'2 3.8
2017-Dec-10 09:31N 29°56' W 093°07'2 3.4
2017-Dec-10 09:01N 29°56' W 093°09'2 3.5
2017-Dec-10 08:31N 29°57' W 093°10'2 3.9
2017-Dec-10 08:01N 29°59' W 093°12'2 3.9
2017-Dec-10 07:31N 29°60' W 093°13'2 3.9
2017-Dec-10 07:01N 30°02' W 093°14'2 3.7
2017-Dec-10 06:31N 30°03' W 093°16'2 3.7
2017-Dec-10 06:01N 30°05' W 093°17'1 2.9
2017-Dec-10 05:31N 30°06' W 093°18'1 1.8
2017-Dec-10 05:01N 30°06' W 093°19'2 3.7
2017-Dec-10 04:31N 30°04' W 093°20'2 3.3
2017-Dec-10 04:01N 30°04' W 093°22'2 3.2
2017-Dec-10 03:31N 30°04' W 093°24'2 4.1
2017-Dec-10 03:01N 30°04' W 093°26'2 4.2
2017-Dec-10 02:31N 30°04' W 093°29'2 4.2
2017-Dec-10 02:01N 30°04' W 093°31'2 4.2
2017-Dec-10 01:30N 30°04' W 093°34'2 4.1
2017-Dec-10 01:01N 30°04' W 093°36'2 3.9
2017-Dec-10 00:29N 30°04' W 093°38'2 3.8
2017-Dec-10 00:00N 30°04' W 093°41'71 3.6
2017-Dec-09 04:21N 29°29' W 094°52'2 5.4
2017-Dec-09 03:59N 29°31' W 094°53'2 5.1
2017-Dec-09 03:31N 29°33' W 094°54'3 5.3
2017-Dec-09 03:01N 29°35' W 094°56'3 5.0
2017-Dec-09 02:31N 29°37' W 094°58'3 5.8
2017-Dec-09 02:01N 29°40' W 094°59'3 5.6
2017-Dec-09 01:28N 29°42' W 095°01'3 5.3
2017-Dec-09 00:54N 29°44' W 095°03'3 1.9
2017-Dec-08 23:25N 29°47' W 095°05'2 4.2
2017-Dec-08 23:00N 29°45' W 095°06'0 0.0
2017-Dec-08 22:05N 29°45' W 095°06'1 5.8
2017-Dec-08 21:54N 29°46' W 095°05'1 1.4
2017-Dec-08 21:15N 29°47' W 095°04'0 0.0
2017-Dec-08 20:51N 29°47' W 095°04'0 0.1
2017-Dec-08 20:29N 29°47' W 095°05'1 1.1
2017-Dec-08 19:24N 29°46' W 095°05'1 1.3
2017-Dec-08 18:27N 29°47' W 095°05'1 0.6
2017-Dec-08 16:54N 29°46' W 095°05'0 1.0
2017-Dec-08 16:25N 29°46' W 095°05'1 2.7
2017-Dec-08 15:58N 29°47' W 095°05'2 2.2
2017-Dec-08 15:02N 29°46' W 095°07'0 3.8
2017-Dec-08 15:00N 29°46' W 095°06'2 0.4
2017-Dec-08 09:42N 29°47' W 095°04'1 5.4
2017-Dec-08 09:29N 29°46' W 095°05'0 0.5
2017-Dec-08 09:00N 29°46' W 095°05'0 0.0
2017-Dec-08 08:30N 29°46' W 095°05'0 0.0
2017-Dec-08 08:01N 29°46' W 095°05'0 0.0
2017-Dec-08 07:30N 29°46' W 095°05'0 0.0
2017-Dec-08 07:00N 29°46' W 095°05'0 0.0
2017-Dec-08 06:30N 29°46' W 095°05'1 1.9
2017-Dec-08 05:48N 29°45' W 095°06'0 0.0
2017-Dec-08 05:29N 29°45' W 095°06'1 1.9
2017-Dec-08 04:52N 29°46' W 095°07'0 0.2
2017-Dec-08 04:30N 29°46' W 095°06'1 2.0
2017-Dec-08 04:00N 29°46' W 095°05'0 0.0
2017-Dec-08 03:30N 29°46' W 095°05'0 0.0
2017-Dec-08 03:00N 29°46' W 095°05'0 0.0
2017-Dec-08 02:31N 29°46' W 095°05'0 0.0
2017-Dec-08 02:00N 29°46' W 095°05'1 1.6
2017-Dec-08 01:23N 29°46' W 095°07'1 2.3
2017-Dec-08 00:59N 29°45' W 095°06'2 2.9
2017-Dec-08 00:11N 29°47' W 095°04'0 0.1
2017-Dec-07 23:51N 29°47' W 095°04'2 3.8
2017-Dec-07 23:15N 29°45' W 095°06'0 0.2
2017-Dec-07 23:00N 29°45' W 095°06'0 0.0
2017-Dec-07 22:30N 29°45' W 095°06'0 0.0
2017-Dec-07 22:00N 29°45' W 095°06'0 0.0
2017-Dec-07 21:30N 29°45' W 095°06'0 0.0
2017-Dec-07 21:00N 29°45' W 095°06'0 0.0
2017-Dec-07 20:23N 29°45' W 095°06'0 0.0
2017-Dec-07 20:01N 29°45' W 095°06'0 0.0
2017-Dec-07 19:26N 29°45' W 095°06'0 0.0
2017-Dec-07 19:00N 29°45' W 095°06'0 0.0
2017-Dec-07 18:31N 29°45' W 095°06'0 0.0
2017-Dec-07 18:00N 29°45' W 095°06'0 0.0
2017-Dec-07 17:30N 29°45' W 095°06'0 0.0
2017-Dec-07 16:59N 29°45' W 095°06'0 0.0
2017-Dec-07 16:22N 29°45' W 095°06'0 0.0
2017-Dec-07 15:48N 29°45' W 095°06'0 0.0
2017-Dec-07 15:28N 29°45' W 095°06'0 0.0
2017-Dec-07 14:59N 29°45' W 095°06'0 0.0
2017-Dec-07 14:21N 29°45' W 095°06'0 0.0
2017-Dec-07 14:00N 29°45' W 095°06'0 0.0
2017-Dec-07 13:30N 29°45' W 095°06'0 0.0
2017-Dec-07 13:00N 29°45' W 095°06'0 0.0
2017-Dec-07 12:30N 29°45' W 095°06'0 0.0
2017-Dec-07 12:00N 29°45' W 095°06'0 0.0
2017-Dec-07 11:30N 29°45' W 095°06'0 0.0
2017-Dec-07 11:01N 29°45' W 095°06'0 0.0
2017-Dec-07 10:31N 29°45' W 095°06'0 0.0
2017-Dec-07 10:00N 29°45' W 095°06'0 0.0
2017-Dec-07 09:29N 29°45' W 095°06'0 0.0
2017-Dec-07 09:00N 29°45' W 095°06'0 0.0
2017-Dec-07 08:31N 29°45' W 095°06'0 0.0
2017-Dec-07 08:00N 29°45' W 095°06'0 0.0
2017-Dec-07 07:31N 29°45' W 095°06'0 0.0
2017-Dec-07 07:01N 29°45' W 095°06'0 0.0
2017-Dec-07 06:30N 29°45' W 095°06'0 0.0
2017-Dec-07 06:00N 29°45' W 095°06'0 0.0
2017-Dec-07 05:30N 29°45' W 095°06'0 0.0
2017-Dec-07 05:00N 29°45' W 095°06'0 0.0
2017-Dec-07 04:31N 29°45' W 095°06'0 0.0
2017-Dec-07 04:00N 29°45' W 095°06'0 0.1
2017-Dec-07 03:30N 29°45' W 095°06'0 0.2
2017-Dec-07 02:59N 29°45' W 095°06'1 1.1
2017-Dec-07 02:26N 29°46' W 095°07'3 2.5
2017-Dec-07 01:22N 29°47' W 095°04'2 1.3
2017-Dec-06 23:41N 29°46' W 095°06'0 2.6
2017-Dec-06 23:31N 29°46' W 095°05'0 0.3
2017-Dec-06 22:02N 29°45' W 095°06'0 2.9
2017-Dec-06 21:53N 29°46' W 095°05'  
2017-Dec-04 09:50N 30°04' W 093°41'2 4.9
2017-Dec-04 09:23N 30°04' W 093°38'2 4.9
2017-Dec-04 09:00N 30°04' W 093°36'2 5.0
2017-Dec-04 08:31N 30°04' W 093°33'3 5.1
2017-Dec-04 08:01N 30°04' W 093°30'3 5.2
2017-Dec-04 07:31N 30°04' W 093°27'2 4.7
2017-Dec-04 07:00N 30°04' W 093°24'2 4.6
2017-Dec-04 06:31N 30°04' W 093°22'2 4.5
2017-Dec-04 06:01N 30°05' W 093°20'2 3.8
2017-Dec-04 05:31N 30°05' W 093°18'1 1.3
2017-Dec-04 05:01N 30°05' W 093°17'1 1.8
2017-Dec-04 04:31N 30°04' W 093°16'0 0.0
2017-Dec-04 04:01N 30°04' W 093°16'0 0.0
2017-Dec-04 03:31N 30°04' W 093°16'0 0.0
2017-Dec-04 03:01N 30°04' W 093°16'0 0.0
2017-Dec-04 02:30N 30°04' W 093°16'0 0.0
2017-Dec-04 02:01N 30°04' W 093°16'0 0.1
2017-Dec-04 01:31N 30°04' W 093°16'1 1.3
2017-Dec-04 01:01N 30°04' W 093°16'2 4.1
2017-Dec-04 00:30N 30°02' W 093°15'2 3.2
2017-Dec-03 23:58N 30°01' W 093°14'2 4.1
2017-Dec-03 23:27N 29°59' W 093°12'2 4.4
2017-Dec-03 22:56N 29°57' W 093°10'2 4.2
2017-Dec-03 22:30N 29°56' W 093°09'42 3.4
2017-Dec-03 10:07N 29°51' W 092°21'1 4.4
2017-Dec-03 09:59N 29°51' W 092°20'2 3.6
2017-Dec-03 09:30N 29°50' W 092°19'2 3.8
2017-Dec-03 09:00N 29°49' W 092°17'2 4.2
2017-Dec-03 08:31N 29°48' W 092°15'1 2.3
2017-Dec-03 08:00N 29°48' W 092°14'0 0.1
2017-Dec-03 07:31N 29°48' W 092°14'0 0.0
2017-Dec-03 06:56N 29°48' W 092°14'0 0.1
2017-Dec-03 06:31N 29°48' W 092°14'0 0.0
2017-Dec-03 05:56N 29°48' W 092°14'0 0.2
2017-Dec-03 05:31N 29°48' W 092°13'1 1.9
2017-Dec-03 04:58N 29°47' W 092°12'1 2.4
2017-Dec-03 04:31N 29°47' W 092°11'1 1.2
2017-Dec-03 03:58N 29°46' W 092°10'0 0.0
2017-Dec-03 03:31N 29°46' W 092°10'0 0.0
2017-Dec-03 02:56N 29°46' W 092°10'0 0.0
2017-Dec-03 02:28N 29°46' W 092°10'0 0.0
2017-Dec-03 02:01N 29°46' W 092°10'0 0.7
2017-Dec-03 01:31N 29°47' W 092°10'2 3.2
2017-Dec-03 01:01N 29°47' W 092°08'2 4.5
2017-Dec-03 00:30N 29°48' W 092°06'2 4.5
2017-Dec-03 00:01N 29°49' W 092°03'3 5.0
2017-Dec-02 23:30N 29°49' W 092°01'2 4.9
2017-Dec-02 23:00N 29°50' W 091°58'3 5.1
2017-Dec-02 22:30N 29°51' W 091°55'  
Track history (hours):
 
Tides and Currents Weather Stations Pressure Air Temp Water Temp Dewpoint Dewpoint Depression Visibility Wind Speed Wind Dir Waves Ship Positions

Sarah D.

Owner: C & J MARINE SERVICES, INC., BERWICK, LA. More information available from US FCC via Universal Licensing System and Coast Guard Vessel Documentation Center.

Last reported at 2017-Dec-11 12:53 UTC. Time now 2017-Dec-12 02:44 UTC.
Position N 29°38' W 091°19'.

; draft 3 m.

Type: . MMSI: 367045970.

Date/timePositionNaut miles runAvg speedWind from/ knotsBaromVisibWave heightAir tempDewpointWater temp
2017-Dec-11 12:53N 29°38' W 091°19'2 3.1
2017-Dec-11 12:18N 29°39' W 091°21'30 3.4
2017-Dec-11 03:19N 29°51' W 091°53'1 4.1
2017-Dec-11 03:01N 29°51' W 091°55'2 4.1
2017-Dec-11 02:31N 29°50' W 091°57'2 3.0
2017-Dec-11 02:00N 29°50' W 091°59'2 3.8
2017-Dec-11 01:31N 29°49' W 092°01'2 4.2
2017-Dec-11 01:00N 29°49' W 092°03'2 4.2
2017-Dec-11 00:31N 29°48' W 092°05'2 4.2
2017-Dec-11 00:01N 29°47' W 092°08'2 4.5
2017-Dec-10 23:31N 29°47' W 092°10'2 4.6
2017-Dec-10 23:01N 29°47' W 092°13'2 4.8
2017-Dec-10 22:31N 29°48' W 092°15'2 4.4
2017-Dec-10 22:01N 29°49' W 092°17'2 4.0
2017-Dec-10 21:30N 29°50' W 092°19'3 4.0
2017-Dec-10 20:47N 29°52' W 092°22'25 3.5
2017-Dec-10 13:38N 29°58' W 092°51'1 4.1
2017-Dec-10 13:28N 29°57' W 092°51'2 3.7
2017-Dec-10 13:00N 29°57' W 092°53'2 3.9
2017-Dec-10 12:31N 29°56' W 092°55'2 3.6
2017-Dec-10 12:01N 29°56' W 092°57'2 3.8
2017-Dec-10 11:31N 29°56' W 092°59'1 2.3
2017-Dec-10 11:00N 29°56' W 093°01'1 3.0
2017-Dec-10 10:30N 29°56' W 093°03'2 3.8
2017-Dec-10 10:00N 29°56' W 093°05'2 3.8
2017-Dec-10 09:31N 29°56' W 093°07'2 3.4
2017-Dec-10 09:01N 29°56' W 093°09'2 3.5
2017-Dec-10 08:31N 29°57' W 093°10'2 3.9
2017-Dec-10 08:01N 29°59' W 093°12'2 3.9
2017-Dec-10 07:31N 29°60' W 093°13'2 3.9
2017-Dec-10 07:01N 30°02' W 093°14'2 3.7
2017-Dec-10 06:31N 30°03' W 093°16'2 3.7
2017-Dec-10 06:01N 30°05' W 093°17'1 2.9
2017-Dec-10 05:31N 30°06' W 093°18'1 1.8
2017-Dec-10 05:01N 30°06' W 093°19'2 3.7
2017-Dec-10 04:31N 30°04' W 093°20'2 3.3
2017-Dec-10 04:01N 30°04' W 093°22'2 3.2
2017-Dec-10 03:31N 30°04' W 093°24'2 4.1
2017-Dec-10 03:01N 30°04' W 093°26'2 4.2
2017-Dec-10 02:31N 30°04' W 093°29'2 4.2
2017-Dec-10 02:01N 30°04' W 093°31'2 4.2
2017-Dec-10 01:30N 30°04' W 093°34'2 4.1
2017-Dec-10 01:01N 30°04' W 093°36'2 3.9
2017-Dec-10 00:29N 30°04' W 093°38'2 3.8
2017-Dec-10 00:00N 30°04' W 093°41'71 3.6
2017-Dec-09 04:21N 29°29' W 094°52'2 5.4
2017-Dec-09 03:59N 29°31' W 094°53'2 5.1
2017-Dec-09 03:31N 29°33' W 094°54'3 5.3
2017-Dec-09 03:01N 29°35' W 094°56'3 5.0
2017-Dec-09 02:31N 29°37' W 094°58'3 5.8
2017-Dec-09 02:01N 29°40' W 094°59'3 5.6
2017-Dec-09 01:28N 29°42' W 095°01'3 5.3
2017-Dec-09 00:54N 29°44' W 095°03'3 1.9
2017-Dec-08 23:25N 29°47' W 095°05'2 4.2
2017-Dec-08 23:00N 29°45' W 095°06'0 0.0
2017-Dec-08 22:05N 29°45' W 095°06'1 5.8
2017-Dec-08 21:54N 29°46' W 095°05'1 1.4
2017-Dec-08 21:15N 29°47' W 095°04'0 0.0
2017-Dec-08 20:51N 29°47' W 095°04'0 0.1
2017-Dec-08 20:29N 29°47' W 095°05'1 1.1
2017-Dec-08 19:24N 29°46' W 095°05'1 1.3
2017-Dec-08 18:27N 29°47' W 095°05'1 0.6
2017-Dec-08 16:54N 29°46' W 095°05'0 1.0
2017-Dec-08 16:25N 29°46' W 095°05'1 2.7
2017-Dec-08 15:58N 29°47' W 095°05'2 2.2
2017-Dec-08 15:02N 29°46' W 095°07'0 3.8
2017-Dec-08 15:00N 29°46' W 095°06'2 0.4
2017-Dec-08 09:42N 29°47' W 095°04'1 5.4
2017-Dec-08 09:29N 29°46' W 095°05'0 0.5
2017-Dec-08 09:00N 29°46' W 095°05'0 0.0
2017-Dec-08 08:30N 29°46' W 095°05'0 0.0
2017-Dec-08 08:01N 29°46' W 095°05'0 0.0
2017-Dec-08 07:30N 29°46' W 095°05'0 0.0
2017-Dec-08 07:00N 29°46' W 095°05'0 0.0
2017-Dec-08 06:30N 29°46' W 095°05'1 1.9
2017-Dec-08 05:48N 29°45' W 095°06'0 0.0
2017-Dec-08 05:29N 29°45' W 095°06'1 1.9
2017-Dec-08 04:52N 29°46' W 095°07'0 0.2
2017-Dec-08 04:30N 29°46' W 095°06'1 2.0
2017-Dec-08 04:00N 29°46' W 095°05'0 0.0
2017-Dec-08 03:30N 29°46' W 095°05'0 0.0
2017-Dec-08 03:00N 29°46' W 095°05'0 0.0
2017-Dec-08 02:31N 29°46' W 095°05'0 0.0
2017-Dec-08 02:00N 29°46' W 095°05'1 1.6
2017-Dec-08 01:23N 29°46' W 095°07'1 2.3
2017-Dec-08 00:59N 29°45' W 095°06'2 2.9
2017-Dec-08 00:11N 29°47' W 095°04'0 0.1
2017-Dec-07 23:51N 29°47' W 095°04'2 3.8
2017-Dec-07 23:15N 29°45' W 095°06'0 0.2
2017-Dec-07 23:00N 29°45' W 095°06'0 0.0
2017-Dec-07 22:30N 29°45' W 095°06'0 0.0
2017-Dec-07 22:00N 29°45' W 095°06'0 0.0
2017-Dec-07 21:30N 29°45' W 095°06'0 0.0
2017-Dec-07 21:00N 29°45' W 095°06'0 0.0
2017-Dec-07 20:23N 29°45' W 095°06'0 0.0
2017-Dec-07 20:01N 29°45' W 095°06'0 0.0
2017-Dec-07 19:26N 29°45' W 095°06'0 0.0
2017-Dec-07 19:00N 29°45' W 095°06'0 0.0
2017-Dec-07 18:31N 29°45' W 095°06'0 0.0
2017-Dec-07 18:00N 29°45' W 095°06'0 0.0
2017-Dec-07 17:30N 29°45' W 095°06'0 0.0
2017-Dec-07 16:59N 29°45' W 095°06'0 0.0
2017-Dec-07 16:22N 29°45' W 095°06'0 0.0
2017-Dec-07 15:48N 29°45' W 095°06'0 0.0
2017-Dec-07 15:28N 29°45' W 095°06'0 0.0
2017-Dec-07 14:59N 29°45' W 095°06'0 0.0
2017-Dec-07 14:21N 29°45' W 095°06'0 0.0
2017-Dec-07 14:00N 29°45' W 095°06'0 0.0
2017-Dec-07 13:30N 29°45' W 095°06'0 0.0
2017-Dec-07 13:00N 29°45' W 095°06'0 0.0
2017-Dec-07 12:30N 29°45' W 095°06'0 0.0
2017-Dec-07 12:00N 29°45' W 095°06'0 0.0
2017-Dec-07 11:30N 29°45' W 095°06'0 0.0
2017-Dec-07 11:01N 29°45' W 095°06'0 0.0
2017-Dec-07 10:31N 29°45' W 095°06'0 0.0
2017-Dec-07 10:00N 29°45' W 095°06'0 0.0
2017-Dec-07 09:29N 29°45' W 095°06'0 0.0
2017-Dec-07 09:00N 29°45' W 095°06'0 0.0
2017-Dec-07 08:31N 29°45' W 095°06'0 0.0
2017-Dec-07 08:00N 29°45' W 095°06'0 0.0
2017-Dec-07 07:31N 29°45' W 095°06'0 0.0
2017-Dec-07 07:01N 29°45' W 095°06'0 0.0
2017-Dec-07 06:30N 29°45' W 095°06'0 0.0
2017-Dec-07 06:00N 29°45' W 095°06'0 0.0
2017-Dec-07 05:30N 29°45' W 095°06'0 0.0
2017-Dec-07 05:00N 29°45' W 095°06'0 0.0
2017-Dec-07 04:31N 29°45' W 095°06'0 0.0
2017-Dec-07 04:00N 29°45' W 095°06'0 0.1
2017-Dec-07 03:30N 29°45' W 095°06'0 0.2
2017-Dec-07 02:59N 29°45' W 095°06'1 1.1
2017-Dec-07 02:26N 29°46' W 095°07'3 2.5
2017-Dec-07 01:22N 29°47' W 095°04'2 1.3
2017-Dec-06 23:41N 29°46' W 095°06'0 2.6
2017-Dec-06 23:31N 29°46' W 095°05'0 0.3
2017-Dec-06 22:02N 29°45' W 095°06'0 2.9
2017-Dec-06 21:53N 29°46' W 095°05'  
2017-Dec-04 09:50N 30°04' W 093°41'2 4.9
2017-Dec-04 09:23N 30°04' W 093°38'2 4.9
2017-Dec-04 09:00N 30°04' W 093°36'2 5.0
2017-Dec-04 08:31N 30°04' W 093°33'3 5.1
2017-Dec-04 08:01N 30°04' W 093°30'3 5.2
2017-Dec-04 07:31N 30°04' W 093°27'2 4.7
2017-Dec-04 07:00N 30°04' W 093°24'2 4.6
2017-Dec-04 06:31N 30°04' W 093°22'2 4.5
2017-Dec-04 06:01N 30°05' W 093°20'2 3.8
2017-Dec-04 05:31N 30°05' W 093°18'1 1.3
2017-Dec-04 05:01N 30°05' W 093°17'1 1.8
2017-Dec-04 04:31N 30°04' W 093°16'0 0.0
2017-Dec-04 04:01N 30°04' W 093°16'0 0.0
2017-Dec-04 03:31N 30°04' W 093°16'0 0.0
2017-Dec-04 03:01N 30°04' W 093°16'0 0.0
2017-Dec-04 02:30N 30°04' W 093°16'0 0.0
2017-Dec-04 02:01N 30°04' W 093°16'0 0.1
2017-Dec-04 01:31N 30°04' W 093°16'1 1.3
2017-Dec-04 01:01N 30°04' W 093°16'2 4.1
2017-Dec-04 00:30N 30°02' W 093°15'2 3.2
2017-Dec-03 23:58N 30°01' W 093°14'2 4.1
2017-Dec-03 23:27N 29°59' W 093°12'2 4.4
2017-Dec-03 22:56N 29°57' W 093°10'2 4.2
2017-Dec-03 22:30N 29°56' W 093°09'42 3.4
2017-Dec-03 10:07N 29°51' W 092°21'1 4.4
2017-Dec-03 09:59N 29°51' W 092°20'2 3.6
2017-Dec-03 09:30N 29°50' W 092°19'2 3.8
2017-Dec-03 09:00N 29°49' W 092°17'2 4.2
2017-Dec-03 08:31N 29°48' W 092°15'1 2.3
2017-Dec-03 08:00N 29°48' W 092°14'0 0.1
2017-Dec-03 07:31N 29°48' W 092°14'0 0.0
2017-Dec-03 06:56N 29°48' W 092°14'0 0.1
2017-Dec-03 06:31N 29°48' W 092°14'0 0.0
2017-Dec-03 05:56N 29°48' W 092°14'0 0.2
2017-Dec-03 05:31N 29°48' W 092°13'1 1.9
2017-Dec-03 04:58N 29°47' W 092°12'1 2.4
2017-Dec-03 04:31N 29°47' W 092°11'1 1.2
2017-Dec-03 03:58N 29°46' W 092°10'0 0.0
2017-Dec-03 03:31N 29°46' W 092°10'0 0.0
2017-Dec-03 02:56N 29°46' W 092°10'0 0.0
2017-Dec-03 02:28N 29°46' W 092°10'0 0.0
2017-Dec-03 02:01N 29°46' W 092°10'0 0.7
2017-Dec-03 01:31N 29°47' W 092°10'2 3.2
2017-Dec-03 01:01N 29°47' W 092°08'2 4.5
2017-Dec-03 00:30N 29°48' W 092°06'2 4.5
2017-Dec-03 00:01N 29°49' W 092°03'3 5.0
2017-Dec-02 23:30N 29°49' W 092°01'2 4.9
2017-Dec-02 23:00N 29°50' W 091°58'3 5.1
2017-Dec-02 22:30N 29°51' W 091°55'  

Dump ship's entire track history